Private Wetterstation Sandau
Wetterdaten: Donnerstag, 13.09.2012
Datum Zeit Temp. A. Feuchte A. Luftdruck Regen Wind Richtung Richtung Taupunkt Windchill
13.09.2012 00:01 10,5 C 79 % 1012,7 hPa 0,0 l/m 0,0 km/h (0 Bft) W-NW 292 7,0 C 10,5 C
13.09.2012 00:06 10,4 C 79 % 1012,7 hPa 0,0 l/m 0,0 km/h (0 Bft) W-NW 292 6,9 C 10,4 C
13.09.2012 00:11 10,3 C 80 % 1012,7 hPa 0,0 l/m 3,2 km/h (1 Bft) W-NW 292 7,0 C 10,3 C
13.09.2012 00:16 10,2 C 80 % 1012,7 hPa 0,0 l/m 0,0 km/h (0 Bft) W-NW 292 6,9 C 10,2 C
13.09.2012 00:21 10,1 C 80 % 1012,8 hPa 0,0 l/m 0,0 km/h (0 Bft) W-NW 292 6,8 C 10,1 C
13.09.2012 00:26 10,1 C 80 % 1012,8 hPa 0,0 l/m 0,0 km/h (0 Bft) W-NW 292 6,8 C 10,1 C
13.09.2012 00:31 9,9 C 81 % 1012,8 hPa 0,0 l/m 0,0 km/h (0 Bft) W-NW 292 6,8 C 9,9 C
13.09.2012 00:36 9,9 C 81 % 1012,8 hPa 0,0 l/m 0,0 km/h (0 Bft) W-NW 292 6,8 C 9,9 C
13.09.2012 00:41 9,8 C 81 % 1012,7 hPa 0,0 l/m 0,0 km/h (0 Bft) W-NW 292 6,7 C 9,8 C
13.09.2012 00:46 9,7 C 81 % 1012,8 hPa 0,0 l/m 0,0 km/h (0 Bft) W-NW 292 6,6 C 9,7 C
13.09.2012 00:51 9,6 C 81 % 1012,7 hPa 0,0 l/m 0,0 km/h (0 Bft) W-NW 292 6,5 C 9,6 C
13.09.2012 00:56 9,5 C 81 % 1012,8 hPa 0,0 l/m 1,4 km/h (1 Bft) W-NW 292 6,4 C 9,5 C
13.09.2012 01:01 9,5 C 82 % 1012,8 hPa 0,0 l/m 0,0 km/h (0 Bft) W-NW 292 6,6 C 9,5 C
13.09.2012 01:06 9,4 C 82 % 1012,9 hPa 0,0 l/m 0,0 km/h (0 Bft) W-NW 292 6,5 C 9,4 C
13.09.2012 01:11 9,4 C 82 % 1013,0 hPa 0,0 l/m 2,5 km/h (1 Bft) W-NW 292 6,5 C 9,4 C
13.09.2012 01:16 9,4 C 82 % 1013,1 hPa 0,0 l/m 0,0 km/h (0 Bft) W-NW 292 6,5 C 9,4 C
13.09.2012 01:21 9,3 C 82 % 1013,1 hPa 0,0 l/m 1,8 km/h (1 Bft) W-NW 292 6,4 C 9,3 C
13.09.2012 01:26 9,3 C 82 % 1013,1 hPa 0,0 l/m 2,2 km/h (1 Bft) W-NW 292 6,4 C 9,3 C
13.09.2012 01:31 9,2 C 83 % 1012,9 hPa 0,0 l/m 1,4 km/h (1 Bft) W-SW 247 6,5 C 9,2 C
13.09.2012 01:36 9,2 C 83 % 1012,8 hPa 0,0 l/m 0,0 km/h (0 Bft) W-SW 247 6,5 C 9,2 C
13.09.2012 01:41 9,2 C 83 % 1012,7 hPa 0,0 l/m 1,1 km/h (1 Bft) W-SW 247 6,5 C 9,2 C
13.09.2012 01:46 9,1 C 83 % 1012,7 hPa 0,0 l/m 0,0 km/h (0 Bft) W-NW 292 6,4 C 9,1 C
13.09.2012 01:51 9,1 C 83 % 1012,6 hPa 0,0 l/m 2,5 km/h (1 Bft) W-NW 292 6,4 C 9,1 C
13.09.2012 01:56 9,0 C 84 % 1012,5 hPa 0,0 l/m 0,0 km/h (0 Bft) W 270 6,4 C 9,0 C
13.09.2012 02:01 9,0 C 84 % 1012,6 hPa 0,0 l/m 0,0 km/h (0 Bft) W 270 6,4 C 9,0 C
13.09.2012 02:06 8,9 C 84 % 1012,6 hPa 0,0 l/m 0,0 km/h (0 Bft) W-NW 292 6,3 C 8,9 C
13.09.2012 02:11 8,9 C 84 % 1012,6 hPa 0,0 l/m 0,0 km/h (0 Bft) W-NW 292 6,3 C 8,9 C
13.09.2012 02:16 8,9 C 84 % 1012,7 hPa 0,0 l/m 2,9 km/h (1 Bft) W-NW 292 6,3 C 8,9 C
13.09.2012 02:21 8,9 C 84 % 1012,7 hPa 0,0 l/m 0,0 km/h (0 Bft) W-NW 292 6,3 C 8,9 C
13.09.2012 02:26 8,9 C 84 % 1012,7 hPa 0,0 l/m 0,0 km/h (0 Bft) W-NW 292 6,3 C 8,9 C
13.09.2012 02:31 8,8 C 84 % 1012,7 hPa 0,0 l/m 0,0 km/h (0 Bft) W-NW 292 6,2 C 8,8 C
13.09.2012 02:36 8,7 C 85 % 1012,8 hPa 0,0 l/m 0,0 km/h (0 Bft) W-NW 292 6,3 C 8,7 C
13.09.2012 02:41 8,7 C 85 % 1012,8 hPa 0,0 l/m 0,0 km/h (0 Bft) W-NW 292 6,3 C 8,7 C
13.09.2012 02:46 8,6 C 85 % 1012,8 hPa 0,0 l/m 0,0 km/h (0 Bft) W-NW 292 6,2 C 8,6 C
13.09.2012 02:51 8,6 C 85 % 1012,8 hPa 0,0 l/m 0,0 km/h (0 Bft) W-NW 292 6,2 C 8,6 C
13.09.2012 02:56 8,5 C 85 % 1012,9 hPa 0,0 l/m 0,0 km/h (0 Bft) W-NW 292 6,1 C 8,5 C
13.09.2012 03:01 8,5 C 85 % 1012,9 hPa 0,0 l/m 0,0 km/h (0 Bft) W-NW 292 6,1 C 8,5 C
13.09.2012 03:06 8,4 C 85 % 1013,0 hPa 0,0 l/m 0,0 km/h (0 Bft) W-NW 292 6,0 C 8,4 C
13.09.2012 03:11 8,4 C 85 % 1012,9 hPa 0,0 l/m 0,0 km/h (0 Bft) W-NW 292 6,0 C 8,4 C
13.09.2012 03:16 8,4 C 86 % 1013,0 hPa 0,0 l/m 0,0 km/h (0 Bft) W-NW 292 6,2 C 8,4 C
13.09.2012 03:21 8,4 C 86 % 1013,1 hPa 0,0 l/m 0,0 km/h (0 Bft) W-NW 292 6,2 C 8,4 C
13.09.2012 03:26 8,4 C 86 % 1013,0 hPa 0,0 l/m 0,0 km/h (0 Bft) W-NW 292 6,2 C 8,4 C
13.09.2012 03:31 8,4 C 86 % 1013,1 hPa 0,0 l/m 0,0 km/h (0 Bft) W-NW 292 6,2 C 8,4 C
13.09.2012 03:36 8,4 C 86 % 1013,1 hPa 0,0 l/m 4,0 km/h (1 Bft) W-NW 292 6,2 C 8,4 C
13.09.2012 03:41 8,3 C 86 % 1013,2 hPa 0,0 l/m 0,0 km/h (0 Bft) W-NW 292 6,1 C 8,3 C
13.09.2012 03:46 8,3 C 86 % 1013,2 hPa 0,0 l/m 0,0 km/h (0 Bft) W-NW 292 6,1 C 8,3 C
13.09.2012 03:51 8,3 C 86 % 1013,2 hPa 0,0 l/m 0,0 km/h (0 Bft) W-NW 292 6,1 C 8,3 C
13.09.2012 03:56 8,3 C 86 % 1013,3 hPa 0,0 l/m 0,0 km/h (0 Bft) W-NW 292 6,1 C 8,3 C
13.09.2012 04:01 8,2 C 86 % 1013,3 hPa 0,0 l/m 0,0 km/h (0 Bft) W-NW 292 6,0 C 8,2 C
13.09.2012 04:06 8,1 C 86 % 1013,3 hPa 0,0 l/m 0,0 km/h (0 Bft) W-NW 292 5,9 C 8,1 C
13.09.2012 04:11 8,1 C 86 % 1013,3 hPa 0,0 l/m 2,5 km/h (1 Bft) W-NW 292 5,9 C 8,1 C
13.09.2012 04:16 8,0 C 86 % 1013,4 hPa 0,0 l/m 0,0 km/h (0 Bft) W-NW 292 5,8 C 8,0 C
13.09.2012 04:21 7,9 C 87 % 1013,4 hPa 0,0 l/m 0,0 km/h (0 Bft) W-NW 292 5,9 C 7,9 C
13.09.2012 04:26 7,9 C 87 % 1013,5 hPa 0,0 l/m 2,2 km/h (1 Bft) W-NW 292 5,9 C 7,9 C
13.09.2012 04:31 7,9 C 87 % 1013,5 hPa 0,0 l/m 1,4 km/h (1 Bft) W-NW 292 5,9 C 7,9 C
13.09.2012 04:36 7,9 C 87 % 1013,5 hPa 0,0 l/m 0,0 km/h (0 Bft) W-NW 292 5,9 C 7,9 C
13.09.2012 04:41 7,9 C 87 % 1013,5 hPa 0,0 l/m 1,1 km/h (1 Bft) W-NW 292 5,9 C 7,9 C
13.09.2012 04:46 7,8 C 87 % 1013,5 hPa 0,0 l/m 3,6 km/h (1 Bft) W-NW 292 5,8 C 7,8 C
13.09.2012 04:51 7,8 C 87 % 1013,5 hPa 0,0 l/m 0,0 km/h (0 Bft) W-NW 292 5,8 C 7,8 C
13.09.2012 04:56 7,8 C 87 % 1013,5 hPa 0,0 l/m 0,0 km/h (0 Bft) W-NW 292 5,8 C 7,8 C
13.09.2012 05:01 7,8 C 87 % 1013,5 hPa 0,0 l/m 2,2 km/h (1 Bft) W-NW 292 5,8 C 7,8 C
13.09.2012 05:06 7,8 C 87 % 1013,5 hPa 0,0 l/m 2,5 km/h (1 Bft) W-NW 292 5,8 C 7,8 C
13.09.2012 05:11 7,8 C 88 % 1013,6 hPa 0,0 l/m 0,0 km/h (0 Bft) W-NW 292 5,9 C 7,8 C
13.09.2012 05:16 7,7 C 88 % 1013,6 hPa 0,0 l/m 1,4 km/h (1 Bft) W-NW 292 5,8 C 7,7 C
13.09.2012 05:21 7,6 C 88 % 1013,6 hPa 0,0 l/m 0,0 km/h (0 Bft) W-NW 292 5,7 C 7,6 C
13.09.2012 05:26 7,6 C 88 % 1013,7 hPa 0,0 l/m 2,9 km/h (1 Bft) W-NW 292 5,7 C 7,6 C
13.09.2012 05:31 7,6 C 88 % 1013,5 hPa 0,0 l/m 0,0 km/h (0 Bft) W-NW 292 5,7 C 7,6 C
13.09.2012 05:36 7,6 C 88 % 1013,5 hPa 0,0 l/m 4,0 km/h (1 Bft) W-NW 292 5,7 C 7,6 C
13.09.2012 05:41 7,5 C 88 % 1013,5 hPa 0,0 l/m 0,0 km/h (0 Bft) W-NW 292 5,6 C 7,5 C
13.09.2012 05:46 7,5 C 88 % 1013,4 hPa 0,0 l/m 2,9 km/h (1 Bft) W-NW 292 5,6 C 7,5 C
13.09.2012 05:51 7,5 C 88 % 1013,6 hPa 0,0 l/m 2,5 km/h (1 Bft) W-NW 292 5,6 C 7,5 C
13.09.2012 05:56 7,4 C 88 % 1013,7 hPa 0,0 l/m 3,6 km/h (1 Bft) W-NW 292 5,5 C 7,4 C
13.09.2012 06:01 7,4 C 88 % 1013,7 hPa 0,0 l/m 1,4 km/h (1 Bft) W-NW 292 5,5 C 7,4 C
13.09.2012 06:06 7,4 C 88 % 1013,7 hPa 0,0 l/m 0,0 km/h (0 Bft) W-NW 292 5,5 C 7,4 C
13.09.2012 06:11 7,4 C 88 % 1013,9 hPa 0,0 l/m 1,8 km/h (1 Bft) W-NW 292 5,5 C 7,4 C
13.09.2012 06:16 7,4 C 88 % 1014,0 hPa 0,0 l/m 0,0 km/h (0 Bft) W-NW 292 5,5 C 7,4 C
13.09.2012 06:21 7,4 C 88 % 1014,0 hPa 0,0 l/m 3,2 km/h (1 Bft) W-NW 292 5,5 C 7,4 C
13.09.2012 06:26 7,3 C 88 % 1014,0 hPa 0,0 l/m 2,5 km/h (1 Bft) W-NW 292 5,4 C 7,3 C
13.09.2012 06:31 7,3 C 88 % 1014,0 hPa 0,0 l/m 3,2 km/h (1 Bft) W-NW 292 5,4 C 7,3 C
13.09.2012 06:36 7,3 C 88 % 1014,2 hPa 0,0 l/m 3,6 km/h (1 Bft) W-NW 292 5,4 C 7,3 C
13.09.2012 06:41 7,2 C 88 % 1014,0 hPa 0,0 l/m 2,2 km/h (1 Bft) W-NW 292 5,3 C 7,2 C
13.09.2012 06:46 7,2 C 88 % 1013,9 hPa 0,0 l/m 2,9 km/h (1 Bft) W-NW 292 5,3 C 7,2 C
13.09.2012 06:51 7,2 C 88 % 1014,2 hPa 0,0 l/m 2,5 km/h (1 Bft) W-NW 292 5,3 C 7,2 C
13.09.2012 06:56 7,2 C 88 % 1014,2 hPa 0,0 l/m 3,2 km/h (1 Bft) W-NW 292 5,3 C 7,2 C
13.09.2012 07:01 7,2 C 89 % 1014,2 hPa 0,0 l/m 3,6 km/h (1 Bft) W-NW 292 5,5 C 7,2 C
13.09.2012 07:06 7,2 C 89 % 1014,1 hPa 0,0 l/m 2,5 km/h (1 Bft) W-NW 292 5,5 C 7,2 C
13.09.2012 07:11 7,2 C 89 % 1014,1 hPa 0,0 l/m 4,7 km/h (1 Bft) W-NW 292 5,5 C 6,7 C
13.09.2012 07:16 7,2 C 89 % 1014,2 hPa 0,0 l/m 0,0 km/h (0 Bft) W-NW 292 5,5 C 7,2 C
13.09.2012 07:21 7,2 C 89 % 1014,3 hPa 0,0 l/m 1,4 km/h (1 Bft) W-NW 292 5,5 C 7,2 C
13.09.2012 07:26 7,4 C 89 % 1014,5 hPa 0,0 l/m 0,0 km/h (0 Bft) W-NW 292 5,7 C 7,4 C
13.09.2012 07:31 7,6 C 89 % 1014,4 hPa 0,0 l/m 3,2 km/h (1 Bft) W-NW 292 5,9 C 7,6 C
13.09.2012 07:36 7,8 C 89 % 1014,5 hPa 0,0 l/m 1,4 km/h (1 Bft) W 270 6,1 C 7,8 C
13.09.2012 07:41 7,9 C 89 % 1014,5 hPa 0,0 l/m 2,5 km/h (1 Bft) W-NW 292 6,2 C 7,9 C
13.09.2012 07:46 8,2 C 89 % 1014,6 hPa 0,0 l/m 0,0 km/h (0 Bft) W-NW 292 6,5 C 8,2 C
13.09.2012 07:51 8,4 C 89 % 1014,6 hPa 0,0 l/m 4,0 km/h (1 Bft) W 270 6,7 C 8,4 C
13.09.2012 07:56 8,6 C 89 % 1014,6 hPa 0,0 l/m 0,0 km/h (0 Bft) W-NW 292 6,9 C 8,6 C
13.09.2012 08:01 8,8 C 89 % 1014,6 hPa 0,0 l/m 0,0 km/h (0 Bft) W 270 7,1 C 8,8 C
13.09.2012 08:06 8,9 C 88 % 1014,7 hPa 0,0 l/m 1,1 km/h (1 Bft) W 270 7,0 C 8,9 C
13.09.2012 08:11 9,1 C 88 % 1014,6 hPa 0,0 l/m 2,5 km/h (1 Bft) W 270 7,2 C 9,1 C
13.09.2012 08:16 9,3 C 88 % 1014,6 hPa 0,0 l/m 2,2 km/h (1 Bft) W 270 7,4 C 9,3 C
13.09.2012 08:21 9,5 C 87 % 1014,6 hPa 0,0 l/m 4,0 km/h (1 Bft) W 270 7,4 C 9,5 C
13.09.2012 08:26 9,6 C 87 % 1014,6 hPa 0,0 l/m 0,0 km/h (0 Bft) W 270 7,5 C 9,6 C
13.09.2012 08:31 9,8 C 86 % 1014,6 hPa 0,0 l/m 4,7 km/h (1 Bft) W 270 7,6 C 9,6 C
13.09.2012 08:36 9,9 C 86 % 1014,6 hPa 0,0 l/m 8,3 km/h (2 Bft) W 270 7,7 C 8,8 C
13.09.2012 08:41 10,1 C 85 % 1014,6 hPa 0,0 l/m 7,6 km/h (2 Bft) W 270 7,7 C 10,1 C
13.09.2012 08:46 10,2 C 85 % 1014,7 hPa 0,0 l/m 8,3 km/h (2 Bft) W-SW 247 7,8 C 10,2 C
13.09.2012 08:51 10,4 C 85 % 1014,9 hPa 0,0 l/m 7,6 km/h (2 Bft) W 270 8,0 C 10,4 C
13.09.2012 08:56 10,5 C 84 % 1014,8 hPa 0,0 l/m 2,5 km/h (1 Bft) W-SW 247 7,9 C 10,5 C
13.09.2012 09:01 10,7 C 84 % 1014,9 hPa 0,0 l/m 4,3 km/h (1 Bft) W 270 8,1 C 10,7 C
13.09.2012 09:06 10,9 C 83 % 1014,8 hPa 0,0 l/m 7,9 km/h (2 Bft) W-SW 247 8,1 C 10,9 C
13.09.2012 09:11 11,0 C 83 % 1014,8 hPa 0,0 l/m 2,2 km/h (1 Bft) W-SW 247 8,2 C 11,0 C
13.09.2012 09:16 11,3 C 82 % 1014,9 hPa 0,0 l/m 3,2 km/h (1 Bft) W 270 8,3 C 11,3 C
13.09.2012 09:21 11,4 C 82 % 1014,9 hPa 0,0 l/m 3,6 km/h (1 Bft) W-NW 292 8,4 C 11,4 C
13.09.2012 09:26 11,6 C 82 % 1015,0 hPa 0,0 l/m 5,0 km/h (1 Bft) W-SW 247 8,6 C 11,6 C
13.09.2012 09:31 11,8 C 81 % 1015,2 hPa 0,0 l/m 3,2 km/h (1 Bft) W-SW 247 8,6 C 11,8 C
13.09.2012 09:36 11,9 C 80 % 1015,2 hPa 0,0 l/m 1,4 km/h (1 Bft) W 270 8,6 C 11,9 C
13.09.2012 09:41 12,2 C 80 % 1015,4 hPa 0,0 l/m 9,4 km/h (2 Bft) W 270 8,9 C 12,2 C
13.09.2012 09:46 12,4 C 79 % 1015,5 hPa 0,0 l/m 5,0 km/h (1 Bft) W 270 8,9 C 12,4 C
13.09.2012 09:51 12,6 C 79 % 1015,6 hPa 0,0 l/m 5,8 km/h (2 Bft) W-SW 247 9,1 C 12,6 C
13.09.2012 09:56 12,8 C 78 % 1015,7 hPa 0,0 l/m 9,4 km/h (2 Bft) W-SW 247 9,1 C 12,8 C
13.09.2012 10:01 12,9 C 77 % 1015,7 hPa 0,0 l/m 5,4 km/h (1 Bft) W-SW 247 9,0 C 12,9 C
13.09.2012 10:06 13,1 C 77 % 1015,8 hPa 0,0 l/m 3,6 km/h (1 Bft) W-SW 247 9,2 C 13,1 C
13.09.2012 10:11 13,2 C 76 % 1015,8 hPa 0,0 l/m 7,9 km/h (2 Bft) W 270 9,1 C 13,2 C
13.09.2012 10:16 13,4 C 76 % 1015,9 hPa 0,0 l/m 2,2 km/h (1 Bft) W-NW 292 9,3 C 13,4 C
13.09.2012 10:21 13,6 C 75 % 1015,9 hPa 0,0 l/m 2,5 km/h (1 Bft) W-SW 247 9,3 C 13,6 C
13.09.2012 10:26 13,8 C 74 % 1015,8 hPa 0,0 l/m 3,2 km/h (1 Bft) W-NW 292 9,2 C 13,8 C
13.09.2012 10:31 13,9 C 74 % 1016,0 hPa 0,0 l/m 2,9 km/h (1 Bft) W 270 9,3 C 13,9 C
13.09.2012 10:36 14,2 C 73 % 1016,0 hPa 0,0 l/m 5,4 km/h (1 Bft) W-NW 292 9,4 C 14,2 C
13.09.2012 10:41 14,4 C 72 % 1016,1 hPa 0,0 l/m 0,0 km/h (0 Bft) W-NW 292 9,4 C 14,4 C
13.09.2012 10:46 14,6 C 72 % 1016,0 hPa 0,0 l/m 8,6 km/h (2 Bft) NW 315 9,6 C 14,6 C
13.09.2012 10:51 14,7 C 71 % 1016,0 hPa 0,0 l/m 6,8 km/h (2 Bft) NW 315 9,5 C 14,7 C
13.09.2012 10:56 14,9 C 70 % 1015,9 hPa 0,0 l/m 1,8 km/h (1 Bft) W-NW 292 9,5 C 14,9 C
13.09.2012 11:01 14,9 C 69 % 1015,9 hPa 0,0 l/m 0,0 km/h (0 Bft) NW 315 9,3 C 14,9 C
13.09.2012 11:06 15,0 C 69 % 1015,9 hPa 0,0 l/m 4,7 km/h (1 Bft) NW 315 9,4 C 15,0 C
13.09.2012 11:11 15,3 C 68 % 1015,8 hPa 0,0 l/m 10,1 km/h (2 Bft) W-SW 247 9,4 C 15,3 C
13.09.2012 11:16 15,4 C 67 % 1015,8 hPa 0,0 l/m 3,6 km/h (1 Bft) NW 315 9,3 C 15,4 C
13.09.2012 11:21 15,6 C 67 % 1015,8 hPa 0,0 l/m 0,0 km/h (0 Bft) W-NW 292 9,5 C 15,6 C
13.09.2012 11:26 15,6 C 64 % 1015,8 hPa 0,0 l/m 3,6 km/h (1 Bft) W-NW 292 8,8 C 15,6 C
13.09.2012 11:31 15,8 C 64 % 1015,8 hPa 0,0 l/m 2,5 km/h (1 Bft) NW 315 9,0 C 15,8 C
13.09.2012 11:36 15,9 C 64 % 1015,8 hPa 0,0 l/m 11,2 km/h (2 Bft) N 360 9,1 C 15,9 C
13.09.2012 11:41 15,9 C 62 % 1015,9 hPa 0,0 l/m 2,5 km/h (1 Bft) NW 315 8,6 C 15,9 C
13.09.2012 11:46 15,9 C 61 % 1015,9 hPa 0,0 l/m 0,0 km/h (0 Bft) W-NW 292 8,4 C 15,9 C
13.09.2012 11:51 16,1 C 61 % 1015,9 hPa 0,0 l/m 8,3 km/h (2 Bft) N-NW 337 8,6 C 16,1 C
13.09.2012 11:56 16,1 C 60 % 1015,9 hPa 0,0 l/m 5,8 km/h (2 Bft) W-NW 292 8,3 C 16,1 C
13.09.2012 12:01 16,3 C 60 % 1015,9 hPa 0,0 l/m 4,0 km/h (1 Bft) W 270 8,5 C 16,3 C
13.09.2012 12:06 16,4 C 60 % 1015,9 hPa 0,0 l/m 4,0 km/h (1 Bft) W-NW 292 8,6 C 16,4 C
13.09.2012 12:11 16,5 C 60 % 1015,9 hPa 0,0 l/m 3,6 km/h (1 Bft) W-NW 292 8,7 C 16,5 C
13.09.2012 12:16 16,6 C 58 % 1016,0 hPa 0,0 l/m 9,0 km/h (2 Bft) NW 315 8,3 C 16,6 C
13.09.2012 12:21 16,7 C 58 % 1016,2 hPa 0,0 l/m 11,2 km/h (2 Bft) W-SW 247 8,4 C 16,7 C
13.09.2012 12:26 16,9 C 57 % 1016,0 hPa 0,0 l/m 6,1 km/h (2 Bft) N-NW 337 8,3 C 16,9 C
13.09.2012 12:31 17,0 C 56 % 1016,0 hPa 0,0 l/m 7,6 km/h (2 Bft) NW 315 8,2 C 17,0 C
13.09.2012 12:36 17,1 C 56 % 1016,2 hPa 0,0 l/m 4,3 km/h (1 Bft) W-NW 292 8,3 C 17,1 C
13.09.2012 12:41 17,2 C 55 % 1016,0 hPa 0,0 l/m 4,3 km/h (1 Bft) W-NW 292 8,1 C 17,2 C
13.09.2012 12:46 17,3 C 55 % 1016,1 hPa 0,0 l/m 7,9 km/h (2 Bft) W-SW 247 8,2 C 17,3 C
13.09.2012 12:51 17,4 C 55 % 1016,1 hPa 0,0 l/m 4,3 km/h (1 Bft) W-NW 292 8,3 C 17,4 C
13.09.2012 12:56 17,5 C 55 % 1016,0 hPa 0,0 l/m 3,2 km/h (1 Bft) W 270 8,4 C 17,5 C
13.09.2012 13:01 17,5 C 54 % 1016,1 hPa 0,0 l/m 9,4 km/h (2 Bft) N-NO 22 8,1 C 17,5 C
13.09.2012 13:06 17,6 C 54 % 1016,2 hPa 0,0 l/m 9,7 km/h (2 Bft) W-SW 247 8,2 C 17,6 C
13.09.2012 13:11 17,6 C 53 % 1016,1 hPa 0,0 l/m 2,9 km/h (1 Bft) N 360 7,9 C 17,6 C
13.09.2012 13:16 17,8 C 54 % 1016,1 hPa 0,0 l/m 16,2 km/h (3 Bft) W-SW 247 8,4 C 17,8 C
13.09.2012 13:21 18,1 C 53 % 1016,2 hPa 0,0 l/m 12,2 km/h (2 Bft) W-SW 247 8,4 C 18,1 C
13.09.2012 13:26 18,3 C 53 % 1016,1 hPa 0,0 l/m 21,2 km/h (4 Bft) W 270 8,6 C 18,3 C
13.09.2012 13:31 18,3 C 53 % 1016,0 hPa 0,0 l/m 4,7 km/h (1 Bft) W 270 8,6 C 18,3 C
13.09.2012 13:36 18,2 C 53 % 1016,1 hPa 0,0 l/m 13,0 km/h (3 Bft) W-SW 247 8,5 C 18,2 C
13.09.2012 13:41 17,9 C 54 % 1016,0 hPa 0,0 l/m 7,6 km/h (2 Bft) W 270 8,5 C 17,9 C
13.09.2012 13:46 17,7 C 54 % 1016,0 hPa 0,0 l/m 1,4 km/h (1 Bft) W 270 8,3 C 17,7 C
13.09.2012 13:51 17,6 C 54 % 1016,0 hPa 0,0 l/m 4,7 km/h (1 Bft) W-NW 292 8,2 C 17,6 C
13.09.2012 13:56 17,7 C 55 % 1015,9 hPa 0,0 l/m 2,5 km/h (1 Bft) W-NW 292 8,5 C 17,7 C
13.09.2012 14:01 17,8 C 54 % 1015,9 hPa 0,0 l/m 6,1 km/h (2 Bft) W 270 8,4 C 17,8 C
13.09.2012 14:06 17,8 C 54 % 1015,9 hPa 0,0 l/m 3,6 km/h (1 Bft) W-NW 292 8,4 C 17,8 C
13.09.2012 14:11 17,8 C 54 % 1016,0 hPa 0,0 l/m 4,7 km/h (1 Bft) W-SW 247 8,4 C 17,8 C
13.09.2012 14:16 17,7 C 55 % 1016,0 hPa 0,0 l/m 2,2 km/h (1 Bft) W-NW 292 8,5 C 17,7 C
13.09.2012 14:21 17,6 C 55 % 1015,8 hPa 0,0 l/m 3,6 km/h (1 Bft) W 270 8,5 C 17,6 C
13.09.2012 14:26 17,6 C 55 % 1015,8 hPa 0,0 l/m 0,0 km/h (0 Bft) W-NW 292 8,5 C 17,6 C
13.09.2012 14:31 17,6 C 56 % 1015,9 hPa 0,0 l/m 8,3 km/h (2 Bft) W-SW 247 8,7 C 17,6 C
13.09.2012 14:36 17,6 C 56 % 1015,9 hPa 0,0 l/m 8,6 km/h (2 Bft) W-NW 292 8,7 C 17,6 C
13.09.2012 14:41 17,5 C 55 % 1015,7 hPa 0,0 l/m 0,0 km/h (0 Bft) W-NW 292 8,4 C 17,5 C
13.09.2012 14:46 17,5 C 56 % 1015,8 hPa 0,0 l/m 5,0 km/h (1 Bft) W-NW 292 8,6 C 17,5 C
13.09.2012 14:51 17,4 C 55 % 1015,8 hPa 0,0 l/m 5,0 km/h (1 Bft) W-SW 247 8,3 C 17,4 C
13.09.2012 14:56 17,3 C 56 % 1015,9 hPa 0,0 l/m 3,2 km/h (1 Bft) W 270 8,4 C 17,3 C
13.09.2012 15:01 17,2 C 56 % 1015,9 hPa 0,0 l/m 4,0 km/h (1 Bft) W 270 8,3 C 17,2 C
13.09.2012 15:06 17,1 C 56 % 1015,9 hPa 0,0 l/m 5,0 km/h (1 Bft) W-SW 247 8,3 C 17,1 C
13.09.2012 15:11 17,1 C 56 % 1015,9 hPa 0,0 l/m 7,9 km/h (2 Bft) NW 315 8,3 C 17,1 C
13.09.2012 15:16 17,0 C 56 % 1015,8 hPa 0,0 l/m 0,0 km/h (0 Bft) W-NW 292 8,2 C 17,0 C
13.09.2012 15:21 17,0 C 56 % 1016,0 hPa 0,0 l/m 3,6 km/h (1 Bft) W-SW 247 8,2 C 17,0 C
13.09.2012 15:26 16,9 C 56 % 1016,0 hPa 0,0 l/m 2,2 km/h (1 Bft) W-NW 292 8,1 C 16,9 C
13.09.2012 15:31 17,0 C 57 % 1015,8 hPa 0,0 l/m 9,7 km/h (2 Bft) W-SW 247 8,4 C 17,0 C
13.09.2012 15:36 17,1 C 57 % 1015,9 hPa 0,0 l/m 1,1 km/h (1 Bft) W-SW 247 8,5 C 17,1 C
13.09.2012 15:41 17,2 C 56 % 1015,8 hPa 0,0 l/m 1,8 km/h (1 Bft) W-NW 292 8,3 C 17,2 C
13.09.2012 15:46 17,3 C 56 % 1015,9 hPa 0,0 l/m 4,3 km/h (1 Bft) W-SW 247 8,4 C 17,3 C
13.09.2012 15:51 17,4 C 56 % 1016,0 hPa 0,0 l/m 3,6 km/h (1 Bft) W 270 8,5 C 17,4 C
13.09.2012 15:56 17,4 C 55 % 1015,9 hPa 0,0 l/m 5,4 km/h (1 Bft) NW 315 8,3 C 17,4 C
13.09.2012 16:01 17,4 C 55 % 1015,7 hPa 0,0 l/m 7,6 km/h (2 Bft) W-NW 292 8,3 C 17,4 C
13.09.2012 16:06 17,4 C 55 % 1015,7 hPa 0,0 l/m 6,5 km/h (2 Bft) W-SW 247 8,3 C 17,4 C
13.09.2012 16:11 17,4 C 55 % 1015,9 hPa 0,0 l/m 5,0 km/h (1 Bft) W 270 8,3 C 17,4 C
13.09.2012 16:16 17,3 C 55 % 1015,8 hPa 0,0 l/m 1,4 km/h (1 Bft) W-NW 292 8,2 C 17,3 C
13.09.2012 16:21 17,2 C 56 % 1015,9 hPa 0,0 l/m 6,5 km/h (2 Bft) NW 315 8,3 C 17,2 C
13.09.2012 16:26 17,2 C 56 % 1015,9 hPa 0,0 l/m 10,4 km/h (2 Bft) NW 315 8,3 C 17,2 C
13.09.2012 16:31 17,2 C 56 % 1015,9 hPa 0,0 l/m 8,6 km/h (2 Bft) NW 315 8,3 C 17,2 C
13.09.2012 16:36 17,3 C 56 % 1015,9 hPa 0,0 l/m 6,5 km/h (2 Bft) W 270 8,4 C 17,3 C
13.09.2012 16:41 17,3 C 56 % 1016,0 hPa 0,0 l/m 11,9 km/h (2 Bft) NW 315 8,4 C 17,3 C
13.09.2012 16:46 17,3 C 56 % 1016,1 hPa 0,0 l/m 5,0 km/h (1 Bft) W-NW 292 8,4 C 17,3 C
13.09.2012 16:51 17,3 C 56 % 1016,0 hPa 0,0 l/m 4,7 km/h (1 Bft) W-SW 247 8,4 C 17,3 C
13.09.2012 16:56 17,3 C 56 % 1016,1 hPa 0,0 l/m 1,8 km/h (1 Bft) W-NW 292 8,4 C 17,3 C
13.09.2012 17:01 17,4 C 56 % 1016,1 hPa 0,0 l/m 8,3 km/h (2 Bft) W-NW 292 8,5 C 17,4 C
13.09.2012 17:06 17,5 C 56 % 1016,0 hPa 0,0 l/m 12,2 km/h (2 Bft) W-NW 292 8,6 C 17,5 C
13.09.2012 17:11 17,5 C 56 % 1016,0 hPa 0,0 l/m 4,0 km/h (1 Bft) W 270 8,6 C 17,5 C
13.09.2012 17:16 17,6 C 56 % 1016,0 hPa 0,0 l/m 5,0 km/h (1 Bft) W 270 8,7 C 17,6 C
13.09.2012 17:21 17,6 C 56 % 1016,0 hPa 0,0 l/m 0,0 km/h (0 Bft) W-NW 292 8,7 C 17,6 C
13.09.2012 17:26 17,6 C 56 % 1016,0 hPa 0,0 l/m 1,8 km/h (1 Bft) W 270 8,7 C 17,6 C
13.09.2012 17:31 17,5 C 56 % 1016,1 hPa 0,0 l/m 9,7 km/h (2 Bft) W-NW 292 8,6 C 17,5 C
13.09.2012 17:36 17,3 C 55 % 1016,2 hPa 0,0 l/m 4,0 km/h (1 Bft) W-SW 247 8,2 C 17,3 C
13.09.2012 17:41 17,3 C 56 % 1016,1 hPa 0,0 l/m 11,5 km/h (2 Bft) W 270 8,4 C 17,3 C
13.09.2012 17:46 17,2 C 56 % 1016,1 hPa 0,0 l/m 3,2 km/h (1 Bft) W-SW 247 8,3 C 17,2 C
13.09.2012 17:51 17,1 C 56 % 1016,2 hPa 0,0 l/m 0,0 km/h (0 Bft) W 270 8,3 C 17,1 C
13.09.2012 17:56 17,0 C 57 % 1016,3 hPa 0,0 l/m 1,1 km/h (1 Bft) W-NW 292 8,4 C 17,0 C
13.09.2012 18:01 16,9 C 57 % 1016,3 hPa 0,0 l/m 7,6 km/h (2 Bft) W-SW 247 8,3 C 16,9 C
13.09.2012 18:06 16,8 C 57 % 1016,2 hPa 0,0 l/m 1,8 km/h (1 Bft) W-SW 247 8,2 C 16,8 C
13.09.2012 18:11 16,8 C 58 % 1016,2 hPa 0,0 l/m 4,7 km/h (1 Bft) W-SW 247 8,5 C 16,8 C
13.09.2012 18:16 16,6 C 58 % 1016,2 hPa 0,0 l/m 2,5 km/h (1 Bft) W-SW 247 8,3 C 16,6 C
13.09.2012 18:21 16,6 C 59 % 1016,3 hPa 0,0 l/m 5,4 km/h (1 Bft) W-SW 247 8,6 C 16,6 C
13.09.2012 18:26 16,4 C 59 % 1016,2 hPa 0,0 l/m 3,6 km/h (1 Bft) W-SW 247 8,4 C 16,4 C
13.09.2012 18:31 16,3 C 60 % 1016,3 hPa 0,0 l/m 2,9 km/h (1 Bft) W-SW 247 8,5 C 16,3 C
13.09.2012 18:36 16,3 C 60 % 1016,4 hPa 0,0 l/m 3,6 km/h (1 Bft) W-SW 247 8,5 C 16,3 C
13.09.2012 18:41 16,1 C 60 % 1016,2 hPa 0,0 l/m 2,9 km/h (1 Bft) W-SW 247 8,3 C 16,1 C
13.09.2012 18:46 16,1 C 61 % 1016,3 hPa 0,0 l/m 2,2 km/h (1 Bft) W-SW 247 8,6 C 16,1 C
13.09.2012 18:51 15,9 C 61 % 1016,4 hPa 0,0 l/m 3,6 km/h (1 Bft) W-SW 247 8,4 C 15,9 C
13.09.2012 18:56 15,9 C 61 % 1016,4 hPa 0,0 l/m 1,4 km/h (1 Bft) W-SW 247 8,4 C 15,9 C
13.09.2012 19:01 15,9 C 62 % 1016,4 hPa 0,0 l/m 2,9 km/h (1 Bft) W-SW 247 8,6 C 15,9 C
13.09.2012 19:06 15,8 C 62 % 1016,5 hPa 0,0 l/m 1,8 km/h (1 Bft) W-SW 247 8,5 C 15,8 C
13.09.2012 19:11 15,8 C 62 % 1016,6 hPa 0,0 l/m 0,0 km/h (0 Bft) W-SW 247 8,5 C 15,8 C
13.09.2012 19:16 15,7 C 63 % 1016,7 hPa 0,0 l/m 1,4 km/h (1 Bft) W-SW 247 8,7 C 15,7 C
13.09.2012 19:21 15,6 C 63 % 1016,7 hPa 0,0 l/m 4,0 km/h (1 Bft) W-SW 247 8,6 C 15,6 C
13.09.2012 19:26 15,6 C 63 % 1016,6 hPa 0,0 l/m 0,0 km/h (0 Bft) W-SW 247 8,6 C 15,6 C
13.09.2012 19:31 15,5 C 64 % 1016,8 hPa 0,0 l/m 0,0 km/h (0 Bft) W-SW 247 8,7 C 15,5 C
13.09.2012 19:36 15,4 C 64 % 1016,8 hPa 0,0 l/m 0,0 km/h (0 Bft) W-SW 247 8,6 C 15,4 C
13.09.2012 19:41 15,4 C 65 % 1016,7 hPa 0,0 l/m 2,5 km/h (1 Bft) W-SW 247 8,9 C 15,4 C
13.09.2012 19:46 15,3 C 65 % 1016,7 hPa 0,0 l/m 0,0 km/h (0 Bft) W-SW 247 8,8 C 15,3 C
13.09.2012 19:51 15,2 C 65 % 1016,8 hPa 0,0 l/m 0,0 km/h (0 Bft) W-SW 247 8,7 C 15,2 C
13.09.2012 19:56 15,0 C 65 % 1016,8 hPa 0,0 l/m 2,5 km/h (1 Bft) N-NO 22 8,5 C 15,0 C
13.09.2012 20:01 14,9 C 66 % 1017,0 hPa 0,0 l/m 1,8 km/h (1 Bft) N-NO 22 8,6 C 14,9 C
13.09.2012 20:06 14,9 C 66 % 1016,9 hPa 0,0 l/m 0,0 km/h (0 Bft) N-NO 22 8,6 C 14,9 C
13.09.2012 20:11 14,7 C 67 % 1017,0 hPa 0,0 l/m 1,8 km/h (1 Bft) N-NO 22 8,6 C 14,7 C
13.09.2012 20:16 14,6 C 67 % 1017,0 hPa 0,0 l/m 0,0 km/h (0 Bft) W-NW 292 8,5 C 14,6 C
13.09.2012 20:21 14,5 C 67 % 1017,2 hPa 0,0 l/m 4,0 km/h (1 Bft) W-NW 292 8,4 C 14,5 C
13.09.2012 20:26 14,4 C 68 % 1017,2 hPa 0,0 l/m 0,0 km/h (0 Bft) W-SW 247 8,6 C 14,4 C
13.09.2012 20:31 14,4 C 68 % 1017,2 hPa 0,0 l/m 0,0 km/h (0 Bft) W-SW 247 8,6 C 14,4 C
13.09.2012 20:36 14,3 C 68 % 1017,1 hPa 0,0 l/m 0,0 km/h (0 Bft) W-SW 247 8,5 C 14,3 C
13.09.2012 20:41 14,2 C 68 % 1017,3 hPa 0,0 l/m 0,0 km/h (0 Bft) W-SW 247 8,4 C 14,2 C
13.09.2012 20:46 14,1 C 68 % 1017,2 hPa 0,0 l/m 0,0 km/h (0 Bft) W-SW 247 8,3 C 14,1 C
13.09.2012 20:51 14,0 C 69 % 1017,3 hPa 0,0 l/m 0,0 km/h (0 Bft) W-SW 247 8,4 C 14,0 C
13.09.2012 20:56 13,9 C 69 % 1017,3 hPa 0,0 l/m 0,0 km/h (0 Bft) W-SW 247 8,3 C 13,9 C
13.09.2012 21:01 13,9 C 69 % 1017,2 hPa 0,0 l/m 0,0 km/h (0 Bft) W-SW 247 8,3 C 13,9 C
13.09.2012 21:06 13,9 C 70 % 1017,3 hPa 0,0 l/m 0,0 km/h (0 Bft) W-SW 247 8,5 C 13,9 C
13.09.2012 21:11 13,8 C 70 % 1017,0 hPa 0,0 l/m 0,0 km/h (0 Bft) W-SW 247 8,4 C 13,8 C
13.09.2012 21:16 13,6 C 71 % 1017,1 hPa 0,0 l/m 0,0 km/h (0 Bft) W-SW 247 8,4 C 13,6 C
13.09.2012 21:21 13,6 C 71 % 1017,1 hPa 0,0 l/m 0,0 km/h (0 Bft) W-SW 247 8,4 C 13,6 C
13.09.2012 21:26 13,5 C 71 % 1017,1 hPa 0,0 l/m 0,0 km/h (0 Bft) W-SW 247 8,3 C 13,5 C
13.09.2012 21:31 13,4 C 72 % 1017,2 hPa 0,0 l/m 0,0 km/h (0 Bft) W-SW 247 8,5 C 13,4 C
13.09.2012 21:36 13,3 C 72 % 1017,1 hPa 0,0 l/m 0,0 km/h (0 Bft) W-SW 247 8,4 C 13,3 C
13.09.2012 21:41 13,3 C 73 % 1017,3 hPa 0,0 l/m 0,0 km/h (0 Bft) W-SW 247 8,6 C 13,3 C
13.09.2012 21:46 13,1 C 73 % 1017,4 hPa 0,0 l/m 0,0 km/h (0 Bft) W-SW 247 8,4 C 13,1 C
13.09.2012 21:51 13,1 C 73 % 1017,4 hPa 0,0 l/m 0,0 km/h (0 Bft) W-SW 247 8,4 C 13,1 C
13.09.2012 21:56 13,1 C 74 % 1017,5 hPa 0,0 l/m 0,0 km/h (0 Bft) W-SW 247 8,6 C 13,1 C
13.09.2012 22:01 13,0 C 74 % 1017,4 hPa 0,0 l/m 0,0 km/h (0 Bft) W-SW 247 8,5 C 13,0 C
13.09.2012 22:06 13,0 C 74 % 1017,4 hPa 0,0 l/m 0,0 km/h (0 Bft) W-SW 247 8,5 C 13,0 C
13.09.2012 22:11 13,0 C 75 % 1017,4 hPa 0,0 l/m 0,0 km/h (0 Bft) W-SW 247 8,7 C 13,0 C
13.09.2012 22:16 13,0 C 75 % 1017,3 hPa 0,0 l/m 0,0 km/h (0 Bft) W-SW 247 8,7 C 13,0 C
13.09.2012 22:21 13,0 C 75 % 1017,4 hPa 0,0 l/m 0,0 km/h (0 Bft) W-SW 247 8,7 C 13,0 C
13.09.2012 22:26 13,0 C 75 % 1017,4 hPa 0,0 l/m 0,0 km/h (0 Bft) W-SW 247 8,7 C 13,0 C
13.09.2012 22:31 13,1 C 75 % 1017,4 hPa 0,0 l/m 0,0 km/h (0 Bft) W-SW 247 8,8 C 13,1 C
13.09.2012 22:36 13,1 C 75 % 1017,4 hPa 0,0 l/m 0,0 km/h (0 Bft) W-SW 247 8,8 C 13,1 C
13.09.2012 22:41 13,1 C 75 % 1017,3 hPa 0,0 l/m 0,0 km/h (0 Bft) W-SW 247 8,8 C 13,1 C
13.09.2012 22:46 13,1 C 75 % 1017,4 hPa 0,0 l/m 0,0 km/h (0 Bft) W-SW 247 8,8 C 13,1 C
13.09.2012 22:51 13,1 C 76 % 1017,4 hPa 0,0 l/m 0,0 km/h (0 Bft) W-SW 247 9,0 C 13,1 C
13.09.2012 22:56 13,0 C 76 % 1017,5 hPa 0,0 l/m 0,0 km/h (0 Bft) W-SW 247 8,9 C 13,0 C
13.09.2012 23:01 13,0 C 76 % 1017,5 hPa 0,0 l/m 0,0 km/h (0 Bft) W-SW 247 8,9 C 13,0 C
13.09.2012 23:06 13,0 C 76 % 1017,3 hPa 0,0 l/m 0,0 km/h (0 Bft) W-SW 247 8,9 C 13,0 C
13.09.2012 23:11 12,9 C 76 % 1017,2 hPa 0,0 l/m 1,4 km/h (1 Bft) W-SW 247 8,8 C 12,9 C
13.09.2012 23:16 12,9 C 76 % 1017,3 hPa 0,0 l/m 1,1 km/h (1 Bft) W-SW 247 8,8 C 12,9 C
13.09.2012 23:21 12,8 C 76 % 1017,3 hPa 0,0 l/m 1,4 km/h (1 Bft) W-SW 247 8,7 C 12,8 C
13.09.2012 23:26 12,8 C 76 % 1017,3 hPa 0,0 l/m 2,2 km/h (1 Bft) W-SW 247 8,7 C 12,8 C
13.09.2012 23:31 12,7 C 77 % 1017,2 hPa 0,0 l/m 2,5 km/h (1 Bft) W-SW 247 8,8 C 12,7 C
13.09.2012 23:36 12,6 C 77 % 1017,0 hPa 0,0 l/m 4,0 km/h (1 Bft) W-SW 247 8,7 C 12,6 C
13.09.2012 23:41 12,5 C 77 % 1017,2 hPa 0,0 l/m 2,2 km/h (1 Bft) S 180 8,6 C 12,5 C
13.09.2012 23:46 12,5 C 77 % 1017,3 hPa 0,0 l/m 0,0 km/h (0 Bft) S-SW 202 8,6 C 12,5 C
13.09.2012 23:51 12,5 C 77 % 1017,2 hPa 0,0 l/m 0,0 km/h (0 Bft) S-SW 202 8,6 C 12,5 C
13.09.2012 23:56 12,4 C 77 % 1017,1 hPa 0,0 l/m 1,1 km/h (1 Bft) S 180 8,5 C 12,4 C
_ Min-Zeit 06:41 13:11 01:56 - 00:01 - - 06:41 07:11
Minimum _ 7,2 C 53 % 1012,5 hPa - 0,0 km/h (0 Bft) - - 5,3 C 6,7 C
_ Max-Zeit 13:26 07:01 21:56 00:01 13:26 - - 10:46 13:26
Maximum _ 18,3 C 89 % 1017,5 hPa 0,0 l/m 21,2 km/h
W (4 Bft)
- - 9,6 C 18,3 C
Durchschnitt _ 12,8 C 72 % 1015,3 hPa #0,0 l/m 2,8 km/h (1 Bft) W-NW - 7,7 C 12,8 C
(c) by David Heller